createdAt,value
2023-05-12T00:01:22.896Z,7.55
2023-05-12T00:04:08.709Z,11.40
2023-05-12T00:06:56.251Z,8.05
2023-05-12T00:09:41.938Z,7.88
2023-05-12T00:12:27.564Z,6.32
2023-05-12T00:15:14.913Z,8.93
2023-05-12T00:18:00.458Z,8.68
2023-05-12T00:20:46.497Z,8.68
2023-05-12T00:23:32.503Z,12.23
2023-05-12T00:26:17.767Z,8.02
2023-05-12T00:29:08.282Z,8.93
2023-05-12T00:31:56.356Z,12.00
2023-05-12T00:34:42.576Z,14.57
2023-05-12T00:37:28.406Z,13.27
2023-05-12T00:40:14.012Z,9.75
2023-05-12T00:42:59.541Z,9.73
2023-05-12T00:45:46.062Z,11.57
2023-05-12T00:48:32.970Z,12.88
2023-05-12T00:51:19.870Z,12.40
2023-05-12T00:54:05.435Z,12.55
2023-05-12T00:56:51.774Z,16.02
2023-05-12T00:59:39.767Z,14.43
2023-05-12T01:02:25.428Z,17.55
2023-05-12T01:05:12.201Z,17.33
2023-05-12T01:08:00.521Z,16.67
2023-05-12T01:10:46.369Z,17.20
2023-05-12T01:13:34.708Z,18.73
2023-05-12T01:16:26.281Z,15.82
2023-05-12T01:19:40.839Z,16.05
2023-05-12T01:22:31.531Z,14.05
2023-05-12T01:25:19.617Z,16.45
2023-05-12T01:28:06.737Z,20.20
2023-05-12T01:30:52.834Z,16.98
2023-05-12T01:33:38.569Z,14.10
2023-05-12T01:36:26.176Z,13.13
2023-05-12T01:39:12.721Z,15.45
2023-05-12T01:41:58.864Z,12.63
2023-05-12T01:44:44.313Z,12.00
2023-05-12T01:47:32.310Z,12.75
2023-05-12T01:50:23.942Z,10.98
2023-05-12T01:53:12.485Z,14.43
2023-05-12T01:55:57.930Z,16.52
2023-05-12T01:58:50.398Z,12.70
2023-05-12T02:01:38.820Z,15.60
2023-05-12T02:04:25.369Z,11.88
2023-05-12T02:07:11.292Z,11.15
2023-05-12T02:09:57.041Z,16.30
2023-05-12T02:12:43.982Z,19.67
2023-05-12T02:15:29.948Z,14.25
2023-05-12T02:18:18.136Z,18.90
2023-05-12T02:21:06.844Z,18.58
2023-05-12T02:23:53.070Z,15.45
2023-05-12T02:26:39.652Z,16.75
2023-05-12T02:29:24.988Z,14.60
2023-05-12T02:32:10.723Z,17.92
2023-05-12T02:34:56.610Z,20.98
2023-05-12T02:37:42.244Z,20.65
2023-05-12T02:40:27.841Z,19.65
2023-05-12T02:43:15.088Z,20.20
2023-05-12T02:46:01.798Z,15.68
2023-05-12T02:48:47.471Z,22.42
2023-05-12T02:51:33.636Z,17.85
2023-05-12T02:54:19.290Z,21.77
2023-05-12T02:57:11.171Z,18.15
2023-05-12T02:59:57.343Z,20.25
2023-05-12T03:02:43.101Z,14.98
2023-05-12T03:05:29.029Z,19.15
2023-05-12T03:08:15.002Z,22.15
2023-05-12T03:11:00.885Z,21.92
2023-05-12T03:13:45.913Z,17.67
2023-05-12T03:16:31.737Z,18.05
2023-05-12T03:19:17.422Z,15.43
2023-05-12T03:22:03.307Z,19.40
2023-05-12T03:24:49.237Z,15.23
2023-05-12T03:27:35.175Z,16.30
2023-05-12T03:30:21.407Z,13.45
2023-05-12T03:33:06.828Z,12.38
2023-05-12T03:35:52.141Z,16.15
2023-05-12T03:38:41.450Z,15.98
2023-05-12T03:41:26.879Z,13.82
2023-05-12T03:44:12.650Z,16.63
2023-05-12T03:46:58.153Z,14.90
2023-05-12T03:49:44.434Z,16.30
2023-05-12T03:52:29.708Z,19.23
2023-05-12T03:55:15.592Z,18.17
2023-05-12T03:58:03.188Z,15.00
2023-05-12T04:00:50.413Z,19.80
2023-05-12T04:03:35.823Z,21.27
2023-05-12T04:06:22.943Z,20.92
2023-05-12T04:09:08.349Z,17.33
2023-05-12T04:11:55.550Z,15.43
2023-05-12T04:14:43.127Z,16.58
2023-05-12T04:17:29.098Z,16.02
2023-05-12T04:20:14.754Z,20.00
2023-05-12T04:23:00.571Z,14.85
2023-05-12T04:25:47.275Z,14.48
2023-05-12T04:28:33.311Z,16.23
2023-05-12T04:31:18.892Z,15.40
2023-05-12T04:34:04.641Z,16.75
2023-05-12T04:36:51.593Z,16.75
2023-05-12T04:39:37.780Z,16.65
2023-05-12T04:42:25.249Z,27.05
2023-05-12T04:45:11.561Z,19.70
2023-05-12T04:47:57.129Z,24.23
2023-05-12T04:50:42.524Z,22.38
2023-05-12T04:53:28.233Z,25.90
2023-05-12T04:56:13.946Z,24.67
2023-05-12T04:59:01.136Z,25.58
2023-05-12T05:01:46.401Z,34.97
2023-05-12T05:04:33.194Z,30.02
2023-05-12T05:07:19.140Z,37.35
2023-05-12T05:10:05.968Z,36.58
2023-05-12T05:12:53.299Z,40.53
2023-05-12T05:15:39.303Z,42.58
2023-05-12T05:18:24.829Z,44.15
2023-05-12T05:21:14.189Z,47.50
2023-05-12T05:24:02.584Z,63.97
2023-05-12T05:26:50.993Z,70.88
2023-05-12T05:29:37.042Z,70.82
2023-05-12T05:32:23.072Z,68.72
2023-05-12T05:35:09.152Z,64.55
2023-05-12T05:37:58.848Z,63.80
2023-05-12T05:40:54.907Z,60.42
2023-05-12T05:43:41.620Z,49.60
2023-05-12T05:46:27.424Z,51.45
2023-05-12T05:49:13.706Z,46.80
2023-05-12T05:51:59.311Z,48.53
2023-05-12T05:54:45.229Z,42.08
2023-05-12T05:57:31.053Z,48.03
2023-05-12T06:00:18.752Z,43.55
2023-05-12T06:03:08.808Z,41.35
2023-05-12T06:05:54.761Z,42.10
2023-05-12T06:08:40.358Z,43.88
2023-05-12T06:11:25.988Z,40.08
2023-05-12T06:14:14.688Z,39.95
2023-05-12T06:17:00.435Z,40.90
2023-05-12T06:19:47.937Z,41.50
2023-05-12T06:22:34.729Z,36.33
2023-05-12T06:25:20.909Z,37.00
2023-05-12T06:28:06.740Z,42.65
2023-05-12T06:30:53.602Z,37.95
2023-05-12T06:33:39.200Z,37.10
2023-05-12T06:36:24.882Z,34.58
2023-05-12T06:39:10.205Z,35.35
2023-05-12T06:41:56.036Z,33.75
2023-05-12T06:44:42.517Z,36.55
2023-05-12T06:47:31.412Z,37.53
2023-05-12T06:50:20.091Z,40.60
2023-05-12T06:53:10.205Z,36.38
2023-05-12T06:55:55.825Z,44.10
2023-05-12T06:58:41.392Z,34.65
2023-05-12T07:01:30.646Z,36.75
2023-05-12T07:04:17.550Z,39.53
2023-05-12T07:07:03.781Z,37.80
2023-05-12T07:09:50.512Z,36.85
2023-05-12T07:12:36.310Z,35.40
2023-05-12T07:15:23.096Z,34.35
2023-05-12T07:18:08.638Z,34.67
2023-05-12T07:20:54.245Z,37.00
2023-05-12T07:23:40.090Z,33.78
2023-05-12T07:26:28.850Z,28.63
2023-05-12T07:29:14.216Z,29.90
2023-05-12T07:31:59.752Z,27.67
2023-05-12T07:34:45.037Z,30.95
2023-05-12T07:37:30.699Z,30.45
2023-05-12T07:40:17.558Z,28.42
2023-05-12T07:43:05.892Z,33.13
2023-05-12T07:45:51.168Z,31.83
2023-05-12T07:48:40.088Z,34.10
2023-05-12T07:51:26.104Z,29.15
2023-05-12T07:54:11.632Z,34.80
2023-05-12T07:56:57.247Z,29.48
2023-05-12T07:59:44.719Z,32.15
2023-05-12T08:02:30.124Z,27.08
2023-05-12T08:05:15.933Z,27.75
2023-05-12T08:08:01.660Z,28.92
2023-05-12T08:10:46.915Z,22.33
2023-05-12T08:13:32.507Z,26.33
2023-05-12T08:16:18.272Z,24.83
2023-05-12T08:19:03.751Z,27.17
2023-05-12T08:21:48.883Z,27.33
2023-05-12T08:24:35.635Z,23.73
2023-05-12T08:27:21.821Z,25.00
2023-05-12T08:30:10.829Z,23.23
2023-05-12T08:32:57.236Z,24.02
2023-05-12T08:35:42.798Z,23.58
2023-05-12T08:38:28.558Z,21.27
2023-05-12T08:41:27.632Z,24.98
2023-05-12T08:44:14.224Z,20.60
2023-05-12T08:47:04.594Z,19.30
2023-05-12T08:50:00.955Z,20.15
2023-05-12T08:52:47.066Z,20.33
2023-05-12T08:55:36.261Z,20.67
2023-05-12T08:58:30.590Z,18.75
2023-05-12T09:01:26.463Z,20.17
2023-05-12T09:04:12.174Z,19.13
2023-05-12T09:06:58.268Z,17.05
2023-05-12T09:09:47.132Z,18.63
2023-05-12T09:12:37.183Z,19.45
2023-05-12T09:15:27.807Z,17.10
2023-05-12T09:18:13.405Z,16.33
2023-05-12T09:21:00.915Z,18.90
2023-05-12T09:24:15.119Z,15.68
2023-05-12T09:27:01.849Z,18.07
2023-05-12T09:29:59.174Z,16.17
2023-05-12T09:32:45.728Z,16.30
2023-05-12T09:35:33.502Z,16.13
2023-05-12T09:38:21.085Z,14.60
2023-05-12T09:41:06.498Z,15.88
2023-05-12T09:43:55.163Z,15.45
2023-05-12T09:46:41.076Z,17.42
2023-05-12T09:49:26.947Z,17.02
2023-05-12T09:52:16.086Z,13.90
2023-05-12T09:55:14.069Z,15.02
2023-05-12T09:58:02.337Z,15.23
2023-05-12T10:03:41.488Z,16.52
2023-05-12T10:06:30.319Z,15.13
2023-05-12T10:09:31.722Z,18.40
2023-05-12T10:12:17.560Z,17.50
2023-05-12T10:15:03.390Z,18.42
2023-05-12T10:17:53.879Z,15.82
2023-05-12T10:20:40.010Z,15.05
2023-05-12T10:23:26.750Z,16.02
2023-05-12T10:26:12.476Z,14.02
2023-05-12T10:28:58.424Z,14.68
2023-05-12T10:31:48.872Z,14.57
2023-05-12T10:34:37.513Z,13.73
2023-05-12T10:37:23.924Z,14.43
2023-05-12T10:40:11.284Z,12.40
2023-05-12T10:43:01.099Z,12.25
2023-05-12T10:45:47.062Z,11.55
2023-05-12T10:48:34.833Z,10.80
2023-05-12T10:51:34.684Z,8.70
2023-05-12T10:54:24.465Z,10.65
2023-05-12T10:57:20.735Z,7.38
2023-05-12T11:00:15.675Z,10.10
2023-05-12T11:06:04.795Z,7.63
2023-05-12T11:08:51.001Z,7.03
2023-05-12T11:11:40.369Z,6.93
2023-05-12T11:14:25.814Z,7.47
2023-05-12T11:17:11.612Z,7.45
2023-05-12T11:19:57.060Z,6.82
2023-05-12T11:22:43.467Z,6.68
2023-05-12T11:25:28.690Z,6.00
2023-05-12T11:28:16.825Z,5.35
2023-05-12T11:31:02.333Z,4.10
2023-05-12T11:34:11.264Z,4.82
2023-05-12T11:37:00.821Z,3.00
2023-05-12T11:39:50.955Z,4.78
2023-05-12T11:42:36.552Z,3.97
2023-05-12T11:45:24.901Z,8.15
2023-05-12T11:48:12.659Z,6.78
2023-05-12T11:51:01.225Z,4.75
2023-05-12T11:53:46.819Z,3.17
2023-05-12T11:56:32.117Z,5.97
2023-05-12T11:59:30.928Z,6.63
2023-05-12T12:02:23.376Z,4.63
2023-05-12T12:05:18.302Z,4.18
2023-05-12T12:08:09.450Z,4.78
2023-05-12T12:10:55.068Z,3.53
2023-05-12T12:13:56.598Z,9.73
2023-05-12T12:16:41.742Z,4.47
2023-05-12T12:19:28.014Z,4.03
2023-05-12T12:22:13.604Z,3.70
2023-05-12T12:24:58.998Z,3.60
2023-05-12T12:27:44.433Z,4.05
2023-05-12T12:30:30.096Z,2.95
2023-05-12T12:33:16.155Z,2.40
2023-05-12T12:36:03.406Z,1.58
2023-05-12T12:38:48.836Z,5.93
2023-05-12T12:41:38.402Z,5.45
2023-05-12T12:44:23.810Z,1.70
2023-05-12T12:47:09.421Z,3.55
2023-05-12T12:49:55.335Z,5.40
2023-05-12T12:52:40.654Z,4.30
2023-05-12T12:55:27.201Z,2.97
2023-05-12T12:58:14.423Z,5.43
2023-05-12T13:00:59.862Z,4.43
2023-05-12T13:03:45.426Z,3.85
2023-05-12T13:06:30.998Z,6.63
2023-05-12T13:09:19.503Z,13.20
2023-05-12T13:12:06.049Z,11.95
2023-05-12T13:14:51.583Z,12.60
2023-05-12T13:17:36.853Z,12.82
2023-05-12T13:20:23.026Z,14.85
2023-05-12T13:23:08.404Z,12.35
2023-05-12T13:25:54.029Z,10.93
2023-05-12T13:28:39.709Z,11.73
2023-05-12T13:31:25.997Z,15.57
2023-05-12T13:34:11.485Z,12.98
2023-05-12T13:36:57.147Z,13.38
2023-05-12T13:39:42.908Z,14.43
2023-05-12T13:42:29.597Z,12.93
2023-05-12T13:45:16.336Z,13.05
2023-05-12T13:48:02.609Z,13.65
2023-05-12T13:50:48.463Z,14.70
2023-05-12T13:53:33.661Z,13.85
2023-05-12T13:56:32.197Z,13.45
2023-05-12T13:59:17.624Z,13.23
2023-05-12T14:02:03.283Z,14.55
2023-05-12T14:04:50.264Z,14.40
2023-05-12T14:07:35.957Z,19.92
2023-05-12T14:10:21.329Z,13.40
2023-05-12T14:13:08.490Z,14.70
2023-05-12T14:15:54.487Z,16.45
2023-05-12T14:18:43.189Z,13.10
2023-05-12T14:21:29.166Z,16.60
2023-05-12T14:24:17.896Z,11.73
2023-05-12T14:27:09.139Z,12.27
2023-05-12T14:29:56.325Z,13.05
2023-05-12T14:32:42.045Z,17.60
2023-05-12T14:35:28.586Z,14.52
2023-05-12T14:38:17.974Z,12.18
2023-05-12T14:41:08.349Z,14.93
2023-05-12T14:43:54.370Z,18.17
2023-05-12T14:46:39.853Z,18.35
2023-05-12T14:49:25.452Z,12.88
2023-05-12T14:52:10.873Z,13.05
2023-05-12T14:54:59.025Z,9.80
2023-05-12T14:57:45.191Z,14.25
2023-05-12T15:00:30.876Z,14.07
2023-05-12T15:03:16.424Z,14.93
2023-05-12T15:06:06.961Z,12.52
2023-05-12T15:08:52.689Z,12.93
2023-05-12T15:11:38.211Z,9.00
2023-05-12T15:17:11.828Z,10.05
2023-05-12T15:19:57.325Z,10.88
2023-05-12T15:22:43.484Z,8.48
2023-05-12T15:25:29.144Z,7.35
2023-05-12T15:28:14.665Z,10.57
2023-05-12T15:31:00.321Z,6.50
2023-05-12T15:33:46.063Z,9.05
2023-05-12T15:36:32.419Z,8.27
2023-05-12T15:39:17.817Z,7.07
2023-05-12T15:42:05.571Z,10.35
2023-05-12T15:44:54.073Z,7.60
2023-05-12T15:47:40.752Z,6.78
2023-05-12T15:50:26.408Z,6.22
2023-05-12T15:53:11.764Z,5.30
2023-05-12T15:56:01.381Z,6.65
2023-05-12T15:58:46.639Z,6.85
2023-05-12T16:01:32.065Z,5.57
2023-05-12T16:04:17.771Z,5.22
2023-05-12T16:07:03.753Z,9.95
2023-05-12T16:09:49.241Z,5.10
2023-05-12T16:12:36.714Z,5.50
2023-05-12T16:15:22.616Z,7.05
2023-05-12T16:18:11.076Z,7.75
2023-05-12T16:20:58.281Z,7.57
2023-05-12T16:23:43.845Z,10.15
2023-05-12T16:26:29.538Z,11.68
2023-05-12T16:29:14.951Z,8.98
2023-05-12T16:32:00.699Z,6.20
2023-05-12T16:34:46.864Z,6.65
2023-05-12T16:37:32.395Z,7.35
2023-05-12T16:40:21.572Z,8.40
2023-05-12T16:43:07.365Z,8.05
2023-05-12T16:46:01.701Z,9.38
2023-05-12T16:48:47.174Z,10.07
2023-05-12T16:51:33.353Z,7.72
2023-05-12T16:54:23.043Z,10.32
2023-05-12T16:57:08.802Z,2.60
2023-05-12T16:59:54.692Z,2.80
2023-05-12T17:02:42.094Z,4.70
2023-05-12T17:05:27.596Z,3.38
2023-05-12T17:08:13.407Z,3.28
2023-05-12T17:11:01.619Z,16.52
2023-05-12T17:13:51.379Z,4.63
2023-05-12T17:16:39.801Z,7.78
2023-05-12T17:19:25.846Z,6.47
2023-05-12T17:22:11.084Z,6.18
2023-05-12T17:24:57.074Z,7.45
2023-05-12T17:27:42.877Z,3.38
2023-05-12T17:30:28.446Z,5.00
2023-05-12T17:33:15.624Z,5.22
2023-05-12T17:36:12.771Z,4.47
2023-05-12T17:39:00.017Z,2.85
2023-05-12T17:41:47.297Z,3.97
2023-05-12T17:44:33.150Z,3.15
2023-05-12T17:47:18.765Z,5.78
2023-05-12T17:50:04.340Z,4.30
2023-05-12T17:52:49.699Z,4.60
2023-05-12T17:55:36.957Z,4.60
2023-05-12T17:58:22.661Z,2.92
2023-05-12T18:01:08.887Z,5.72
2023-05-12T18:03:56.975Z,3.85
2023-05-12T18:06:49.984Z,7.22
2023-05-12T18:09:35.173Z,2.58
2023-05-12T18:12:23.505Z,4.70
2023-05-12T18:15:09.715Z,4.13
2023-05-12T18:17:54.924Z,4.60
2023-05-12T18:20:40.838Z,5.38
2023-05-12T18:23:27.416Z,4.45
2023-05-12T18:26:12.815Z,5.18
2023-05-12T18:28:59.338Z,7.13
2023-05-12T18:31:45.122Z,5.38
2023-05-12T18:34:30.330Z,10.13
2023-05-12T18:37:18.296Z,7.25
2023-05-12T18:40:05.083Z,9.68
2023-05-12T18:42:56.002Z,7.57
2023-05-12T18:45:41.441Z,9.65
2023-05-12T18:48:30.015Z,11.45
2023-05-12T18:51:15.644Z,11.73
2023-05-12T18:54:01.074Z,10.65
2023-05-12T18:56:47.604Z,13.90
2023-05-12T18:59:33.105Z,19.13
2023-05-12T19:02:18.638Z,15.70
2023-05-12T19:05:04.378Z,21.80
2023-05-12T19:07:50.026Z,20.70
2023-05-12T19:10:37.910Z,15.68
2023-05-12T19:13:29.103Z,15.02
2023-05-12T19:16:17.985Z,14.43
2023-05-12T19:19:03.574Z,18.55
2023-05-12T19:21:48.892Z,11.18
2023-05-12T19:24:34.441Z,14.70
2023-05-12T19:27:19.862Z,12.23
2023-05-12T19:30:06.391Z,17.33
2023-05-12T19:32:51.797Z,14.00
2023-05-12T19:35:37.314Z,14.15
2023-05-12T19:38:24.111Z,16.27
2023-05-12T19:41:10.136Z,16.48
2023-05-12T19:43:56.675Z,16.45
2023-05-12T19:46:42.060Z,17.67
2023-05-12T19:49:27.475Z,16.25
2023-05-12T19:52:15.648Z,18.30
2023-05-12T19:55:00.905Z,19.10
2023-05-12T19:57:46.615Z,15.30
2023-05-12T20:00:31.991Z,18.23
2023-05-12T20:03:17.584Z,19.42
2023-05-12T20:06:30.573Z,17.73
2023-05-12T20:09:16.330Z,16.27
2023-05-12T20:12:01.738Z,17.30
2023-05-12T20:14:47.188Z,16.33
2023-05-12T20:17:32.800Z,14.98
2023-05-12T20:20:18.181Z,16.83
2023-05-12T20:23:04.644Z,21.98
2023-05-12T20:25:51.278Z,16.00
2023-05-12T20:28:37.004Z,14.60
2023-05-12T20:31:22.556Z,14.60
2023-05-12T20:34:08.128Z,16.25
2023-05-12T20:36:53.543Z,21.20
2023-05-12T20:39:39.589Z,14.43
2023-05-12T20:42:24.974Z,17.27
2023-05-12T20:45:12.068Z,18.80
2023-05-12T20:47:57.558Z,12.77
2023-05-12T20:50:43.719Z,13.52
2023-05-12T20:53:29.540Z,14.52
2023-05-12T20:56:15.260Z,16.95
2023-05-12T20:59:00.622Z,14.70
2023-05-12T21:01:46.142Z,15.63
2023-05-12T21:04:31.462Z,22.48
2023-05-12T21:07:16.826Z,14.25
2023-05-12T21:10:03.684Z,15.35
2023-05-12T21:12:52.315Z,14.07
2023-05-12T21:15:37.845Z,16.25
2023-05-12T21:18:23.434Z,17.52
2023-05-12T21:21:08.479Z,15.50
2023-05-12T21:23:54.134Z,19.40
2023-05-12T21:26:39.510Z,15.07
2023-05-12T21:29:25.105Z,16.27
2023-05-12T21:32:11.120Z,16.80
2023-05-12T21:34:57.306Z,18.40
2023-05-12T21:37:42.676Z,17.80
2023-05-12T21:40:29.992Z,19.65
2023-05-12T21:43:15.288Z,19.88
2023-05-12T21:46:04.828Z,19.63
2023-05-12T21:48:50.135Z,20.40
2023-05-12T21:51:35.684Z,19.92
2023-05-12T21:54:22.636Z,17.20
2023-05-12T21:57:08.011Z,19.98
2023-05-12T21:59:53.538Z,24.05
2023-05-12T22:02:39.400Z,19.05
2023-05-12T22:05:24.826Z,18.92
2023-05-12T22:08:10.582Z,22.23
2023-05-12T22:10:58.969Z,23.17
2023-05-12T22:13:44.391Z,25.27
2023-05-12T22:16:40.833Z,21.30
2023-05-12T22:19:27.711Z,24.48
2023-05-12T22:22:13.574Z,24.23
2023-05-12T22:24:59.051Z,22.38
2023-05-12T22:27:44.664Z,22.55
2023-05-12T22:30:30.424Z,22.92
2023-05-12T22:33:15.635Z,24.73
2023-05-12T22:36:01.491Z,20.13
2023-05-12T22:38:46.622Z,22.90
2023-05-12T22:41:37.614Z,24.13
2023-05-12T22:44:23.333Z,20.75
2023-05-12T22:47:11.943Z,24.23
2023-05-12T22:49:57.550Z,21.85
2023-05-12T22:52:44.573Z,23.98
2023-05-12T22:55:32.740Z,28.35
2023-05-12T22:58:18.074Z,20.67
2023-05-12T23:01:07.412Z,17.80
2023-05-12T23:03:54.540Z,22.23
2023-05-12T23:06:39.889Z,17.77
2023-05-12T23:09:26.760Z,23.30
2023-05-12T23:12:12.336Z,21.58
2023-05-12T23:14:57.464Z,24.75
2023-05-12T23:17:43.504Z,20.92
2023-05-12T23:20:28.915Z,16.13
2023-05-12T23:23:14.362Z,19.65
2023-05-12T23:26:00.977Z,16.20
2023-05-12T23:28:46.606Z,17.20
2023-05-12T23:31:32.265Z,21.77
2023-05-12T23:34:17.747Z,20.23
2023-05-12T23:37:02.935Z,15.77
2023-05-12T23:39:49.044Z,15.93
2023-05-12T23:42:36.907Z,12.15
2023-05-12T23:45:22.456Z,14.75
2023-05-12T23:48:08.448Z,17.50
2023-05-12T23:50:53.860Z,11.15
2023-05-12T23:53:39.566Z,13.55
2023-05-12T23:56:24.735Z,18.88
2023-05-12T23:59:10.339Z,14.88
